sensor_id;sensor_type;location;lat;lon;timestamp;P1;durP1;ratioP1;P2;durP2;ratioP2
48667;SDS011;34453;52.198;5.004;2022-07-18T00:01:00;6.57;;;5.35;;
48667;SDS011;34453;52.198;5.004;2022-07-18T00:03:26;11.13;;;5.85;;
48667;SDS011;34453;52.198;5.004;2022-07-18T00:05:52;10.57;;;5.97;;
48667;SDS011;34453;52.198;5.004;2022-07-18T00:08:18;6.40;;;5.80;;
48667;SDS011;34453;52.198;5.004;2022-07-18T00:10:43;6.57;;;5.78;;
48667;SDS011;34453;52.198;5.004;2022-07-18T00:13:09;6.97;;;6.00;;
48667;SDS011;34453;52.198;5.004;2022-07-18T00:15:35;7.40;;;6.57;;
48667;SDS011;34453;52.198;5.004;2022-07-18T00:18:01;6.53;;;5.72;;
48667;SDS011;34453;52.198;5.004;2022-07-18T00:20:28;5.63;;;5.22;;
48667;SDS011;34453;52.198;5.004;2022-07-18T00:22:54;9.88;;;5.15;;
48667;SDS011;34453;52.198;5.004;2022-07-18T00:25:20;8.13;;;5.38;;
48667;SDS011;34453;52.198;5.004;2022-07-18T00:27:45;6.72;;;5.18;;
48667;SDS011;34453;52.198;5.004;2022-07-18T00:30:11;6.18;;;5.60;;
48667;SDS011;34453;52.198;5.004;2022-07-18T00:32:37;5.63;;;5.13;;
48667;SDS011;34453;52.198;5.004;2022-07-18T00:35:02;4.72;;;4.32;;
48667;SDS011;34453;52.198;5.004;2022-07-18T00:37:31;12.02;;;4.80;;
48667;SDS011;34453;52.198;5.004;2022-07-18T00:39:56;8.02;;;4.68;;
48667;SDS011;34453;52.198;5.004;2022-07-18T00:42:22;7.88;;;4.90;;
48667;SDS011;34453;52.198;5.004;2022-07-18T00:44:51;8.57;;;5.22;;
48667;SDS011;34453;52.198;5.004;2022-07-18T00:47:18;8.33;;;4.53;;
48667;SDS011;34453;52.198;5.004;2022-07-18T00:49:44;4.63;;;4.32;;
48667;SDS011;34453;52.198;5.004;2022-07-18T00:52:09;5.70;;;4.82;;
48667;SDS011;34453;52.198;5.004;2022-07-18T00:54:35;4.78;;;4.38;;
48667;SDS011;34453;52.198;5.004;2022-07-18T00:57:00;5.05;;;4.45;;
48667;SDS011;34453;52.198;5.004;2022-07-18T00:59:26;6.32;;;4.18;;
48667;SDS011;34453;52.198;5.004;2022-07-18T01:02:12;5.13;;;4.57;;
48667;SDS011;34453;52.198;5.004;2022-07-18T01:04:38;6.43;;;4.65;;
48667;SDS011;34453;52.198;5.004;2022-07-18T01:07:04;4.90;;;4.47;;
48667;SDS011;34453;52.198;5.004;2022-07-18T01:09:29;5.88;;;4.68;;
48667;SDS011;34453;52.198;5.004;2022-07-18T01:11:55;4.53;;;4.13;;
48667;SDS011;34453;52.198;5.004;2022-07-18T01:14:20;5.57;;;4.40;;
48667;SDS011;34453;52.198;5.004;2022-07-18T01:16:46;6.72;;;4.80;;
48667;SDS011;34453;52.198;5.004;2022-07-18T01:19:11;6.97;;;4.70;;
48667;SDS011;34453;52.198;5.004;2022-07-18T01:21:37;5.25;;;4.55;;
48667;SDS011;34453;52.198;5.004;2022-07-18T01:24:04;7.10;;;4.55;;
48667;SDS011;34453;52.198;5.004;2022-07-18T01:26:30;4.82;;;4.35;;
48667;SDS011;34453;52.198;5.004;2022-07-18T01:28:55;9.07;;;5.00;;
48667;SDS011;34453;52.198;5.004;2022-07-18T01:31:21;6.93;;;4.95;;
48667;SDS011;34453;52.198;5.004;2022-07-18T01:33:46;6.95;;;4.68;;
48667;SDS011;34453;52.198;5.004;2022-07-18T01:36:12;8.30;;;4.30;;
48667;SDS011;34453;52.198;5.004;2022-07-18T01:38:37;7.32;;;5.18;;
48667;SDS011;34453;52.198;5.004;2022-07-18T01:41:03;4.07;;;3.67;;
48667;SDS011;34453;52.198;5.004;2022-07-18T01:43:29;9.02;;;4.05;;
48667;SDS011;34453;52.198;5.004;2022-07-18T01:45:54;7.60;;;3.90;;
48667;SDS011;34453;52.198;5.004;2022-07-18T01:48:20;8.15;;;3.63;;
48667;SDS011;34453;52.198;5.004;2022-07-18T01:50:48;4.43;;;3.72;;
48667;SDS011;34453;52.198;5.004;2022-07-18T01:53:14;5.97;;;4.57;;
48667;SDS011;34453;52.198;5.004;2022-07-18T01:55:39;6.20;;;4.85;;
48667;SDS011;34453;52.198;5.004;2022-07-18T01:58:05;5.45;;;4.97;;
48667;SDS011;34453;52.198;5.004;2022-07-18T02:00:30;5.43;;;4.55;;
48667;SDS011;34453;52.198;5.004;2022-07-18T02:02:56;6.95;;;5.05;;
48667;SDS011;34453;52.198;5.004;2022-07-18T02:05:21;4.80;;;4.45;;
48667;SDS011;34453;52.198;5.004;2022-07-18T02:07:47;8.07;;;4.32;;
48667;SDS011;34453;52.198;5.004;2022-07-18T02:10:14;5.50;;;4.35;;
48667;SDS011;34453;52.198;5.004;2022-07-18T02:12:41;6.68;;;5.15;;
48667;SDS011;34453;52.198;5.004;2022-07-18T02:15:08;4.82;;;4.28;;
48667;SDS011;34453;52.198;5.004;2022-07-18T02:17:34;11.27;;;4.97;;
48667;SDS011;34453;52.198;5.004;2022-07-18T02:20:00;5.70;;;4.47;;
48667;SDS011;34453;52.198;5.004;2022-07-18T02:22:26;4.53;;;4.10;;
48667;SDS011;34453;52.198;5.004;2022-07-18T02:24:52;5.20;;;4.70;;
48667;SDS011;34453;52.198;5.004;2022-07-18T02:27:18;7.97;;;4.90;;
48667;SDS011;34453;52.198;5.004;2022-07-18T02:29:45;5.07;;;4.68;;
48667;SDS011;34453;52.198;5.004;2022-07-18T02:32:11;5.47;;;5.00;;
48667;SDS011;34453;52.198;5.004;2022-07-18T02:34:36;6.25;;;4.20;;
48667;SDS011;34453;52.198;5.004;2022-07-18T02:37:02;7.40;;;5.72;;
48667;SDS011;34453;52.198;5.004;2022-07-18T02:39:28;5.38;;;4.30;;
48667;SDS011;34453;52.198;5.004;2022-07-18T02:41:54;3.90;;;3.60;;
48667;SDS011;34453;52.198;5.004;2022-07-18T02:44:19;5.68;;;4.55;;
48667;SDS011;34453;52.198;5.004;2022-07-18T02:46:45;7.00;;;3.50;;
48667;SDS011;34453;52.198;5.004;2022-07-18T02:49:10;6.45;;;4.55;;
48667;SDS011;34453;52.198;5.004;2022-07-18T02:51:52;6.78;;;4.47;;
48667;SDS011;34453;52.198;5.004;2022-07-18T02:54:21;5.15;;;3.95;;
48667;SDS011;34453;52.198;5.004;2022-07-18T02:56:47;5.20;;;4.70;;
48667;SDS011;34453;52.198;5.004;2022-07-18T02:59:13;4.18;;;3.83;;
48667;SDS011;34453;52.198;5.004;2022-07-18T03:01:38;6.10;;;4.55;;
48667;SDS011;34453;52.198;5.004;2022-07-18T03:04:04;5.20;;;4.18;;
48667;SDS011;34453;52.198;5.004;2022-07-18T03:06:29;4.70;;;4.30;;
48667;SDS011;34453;52.198;5.004;2022-07-18T03:08:55;4.15;;;3.80;;
48667;SDS011;34453;52.198;5.004;2022-07-18T03:11:20;5.18;;;4.78;;
48667;SDS011;34453;52.198;5.004;2022-07-18T03:13:46;4.40;;;4.00;;
48667;SDS011;34453;52.198;5.004;2022-07-18T03:16:11;4.40;;;3.97;;
48667;SDS011;34453;52.198;5.004;2022-07-18T03:18:37;5.35;;;4.10;;
48667;SDS011;34453;52.198;5.004;2022-07-18T03:21:02;5.93;;;4.20;;
48667;SDS011;34453;52.198;5.004;2022-07-18T03:23:27;6.53;;;4.57;;
48667;SDS011;34453;52.198;5.004;2022-07-18T03:25:53;6.28;;;4.60;;
48667;SDS011;34453;52.198;5.004;2022-07-18T03:28:21;7.78;;;4.32;;
48667;SDS011;34453;52.198;5.004;2022-07-18T03:30:46;4.40;;;4.10;;
48667;SDS011;34453;52.198;5.004;2022-07-18T03:33:12;5.95;;;3.95;;
48667;SDS011;34453;52.198;5.004;2022-07-18T03:35:37;5.38;;;3.95;;
48667;SDS011;34453;52.198;5.004;2022-07-18T03:38:03;4.28;;;3.97;;
48667;SDS011;34453;52.198;5.004;2022-07-18T03:40:28;6.45;;;3.95;;
48667;SDS011;34453;52.198;5.004;2022-07-18T03:42:54;5.53;;;3.90;;
48667;SDS011;34453;52.198;5.004;2022-07-18T03:45:19;4.57;;;3.45;;
48667;SDS011;34453;52.198;5.004;2022-07-18T03:47:45;5.20;;;4.68;;
48667;SDS011;34453;52.198;5.004;2022-07-18T03:50:10;5.20;;;3.58;;
48667;SDS011;34453;52.198;5.004;2022-07-18T03:52:36;4.47;;;4.18;;
48667;SDS011;34453;52.198;5.004;2022-07-18T03:55:01;6.05;;;4.00;;
48667;SDS011;34453;52.198;5.004;2022-07-18T03:57:28;6.22;;;3.83;;
48667;SDS011;34453;52.198;5.004;2022-07-18T03:59:53;4.50;;;4.10;;
48667;SDS011;34453;52.198;5.004;2022-07-18T04:02:19;4.30;;;3.92;;
48667;SDS011;34453;52.198;5.004;2022-07-18T04:04:44;6.40;;;3.85;;
48667;SDS011;34453;52.198;5.004;2022-07-18T04:07:10;7.07;;;4.05;;
48667;SDS011;34453;52.198;5.004;2022-07-18T04:09:35;4.63;;;4.20;;
48667;SDS011;34453;52.198;5.004;2022-07-18T04:12:01;8.13;;;3.83;;
48667;SDS011;34453;52.198;5.004;2022-07-18T04:14:26;4.40;;;4.00;;
48667;SDS011;34453;52.198;5.004;2022-07-18T04:16:52;4.82;;;3.92;;
48667;SDS011;34453;52.198;5.004;2022-07-18T04:19:17;3.63;;;3.38;;
48667;SDS011;34453;52.198;5.004;2022-07-18T04:21:43;4.97;;;3.63;;
48667;SDS011;34453;52.198;5.004;2022-07-18T04:24:09;4.28;;;3.97;;
48667;SDS011;34453;52.198;5.004;2022-07-18T04:26:35;8.48;;;4.70;;
48667;SDS011;34453;52.198;5.004;2022-07-18T04:29:00;3.78;;;3.42;;
48667;SDS011;34453;52.198;5.004;2022-07-18T04:31:26;10.00;;;4.15;;
48667;SDS011;34453;52.198;5.004;2022-07-18T04:33:51;5.60;;;3.95;;
48667;SDS011;34453;52.198;5.004;2022-07-18T04:36:16;7.63;;;4.28;;
48667;SDS011;34453;52.198;5.004;2022-07-18T04:38:43;4.35;;;4.00;;
48667;SDS011;34453;52.198;5.004;2022-07-18T04:41:09;4.07;;;3.58;;
48667;SDS011;34453;52.198;5.004;2022-07-18T04:43:34;4.32;;;3.90;;
48667;SDS011;34453;52.198;5.004;2022-07-18T04:46:00;5.03;;;4.53;;
48667;SDS011;34453;52.198;5.004;2022-07-18T04:48:26;5.75;;;4.05;;
48667;SDS011;34453;52.198;5.004;2022-07-18T04:50:51;5.50;;;4.50;;
48667;SDS011;34453;52.198;5.004;2022-07-18T04:53:17;4.20;;;3.80;;
48667;SDS011;34453;52.198;5.004;2022-07-18T04:55:42;4.50;;;4.00;;
48667;SDS011;34453;52.198;5.004;2022-07-18T04:58:08;4.65;;;4.35;;
48667;SDS011;34453;52.198;5.004;2022-07-18T05:00:34;3.25;;;2.95;;
48667;SDS011;34453;52.198;5.004;2022-07-18T05:03:00;4.35;;;4.05;;
48667;SDS011;34453;52.198;5.004;2022-07-18T05:05:26;6.38;;;3.92;;
48667;SDS011;34453;52.198;5.004;2022-07-18T05:07:52;4.53;;;3.90;;
48667;SDS011;34453;52.198;5.004;2022-07-18T05:10:19;4.60;;;4.03;;
48667;SDS011;34453;52.198;5.004;2022-07-18T05:12:46;5.25;;;3.50;;
48667;SDS011;34453;52.198;5.004;2022-07-18T05:15:17;4.40;;;4.00;;
48667;SDS011;34453;52.198;5.004;2022-07-18T05:17:44;4.22;;;3.92;;
48667;SDS011;34453;52.198;5.004;2022-07-18T05:20:11;3.75;;;3.45;;
48667;SDS011;34453;52.198;5.004;2022-07-18T05:22:39;6.90;;;4.32;;
48667;SDS011;34453;52.198;5.004;2022-07-18T05:25:06;3.65;;;3.22;;
48667;SDS011;34453;52.198;5.004;2022-07-18T05:27:33;4.32;;;3.55;;
48667;SDS011;34453;52.198;5.004;2022-07-18T05:29:58;4.10;;;3.40;;
48667;SDS011;34453;52.198;5.004;2022-07-18T05:32:25;6.63;;;3.28;;
48667;SDS011;34453;52.198;5.004;2022-07-18T05:34:51;3.72;;;3.25;;
48667;SDS011;34453;52.198;5.004;2022-07-18T05:37:16;4.13;;;2.80;;
48667;SDS011;34453;52.198;5.004;2022-07-18T05:39:42;3.75;;;3.38;;
48667;SDS011;34453;52.198;5.004;2022-07-18T05:42:08;4.63;;;3.08;;
48667;SDS011;34453;52.198;5.004;2022-07-18T05:44:33;3.55;;;3.10;;
48667;SDS011;34453;52.198;5.004;2022-07-18T05:46:59;5.00;;;3.15;;
48667;SDS011;34453;52.198;5.004;2022-07-18T05:49:24;7.28;;;3.15;;
48667;SDS011;34453;52.198;5.004;2022-07-18T05:51:50;5.40;;;3.67;;
48667;SDS011;34453;52.198;5.004;2022-07-18T05:54:15;4.13;;;3.67;;
48667;SDS011;34453;52.198;5.004;2022-07-18T05:56:47;3.80;;;3.42;;
48667;SDS011;34453;52.198;5.004;2022-07-18T05:59:15;4.22;;;3.22;;
48667;SDS011;34453;52.198;5.004;2022-07-18T06:01:41;7.68;;;3.78;;
48667;SDS011;34453;52.198;5.004;2022-07-18T06:04:06;3.63;;;3.33;;
48667;SDS011;34453;52.198;5.004;2022-07-18T06:06:32;3.97;;;2.90;;
48667;SDS011;34453;52.198;5.004;2022-07-18T06:08:58;6.60;;;3.08;;
48667;SDS011;34453;52.198;5.004;2022-07-18T06:11:23;4.65;;;3.47;;
48667;SDS011;34453;52.198;5.004;2022-07-18T06:13:49;4.60;;;2.92;;
48667;SDS011;34453;52.198;5.004;2022-07-18T06:16:14;5.72;;;4.13;;
48667;SDS011;34453;52.198;5.004;2022-07-18T06:18:40;8.30;;;3.80;;
48667;SDS011;34453;52.198;5.004;2022-07-18T06:21:05;9.70;;;3.92;;
48667;SDS011;34453;52.198;5.004;2022-07-18T06:23:31;6.65;;;3.97;;
48667;SDS011;34453;52.198;5.004;2022-07-18T06:25:57;5.75;;;3.15;;
48667;SDS011;34453;52.198;5.004;2022-07-18T06:28:23;7.18;;;3.28;;
48667;SDS011;34453;52.198;5.004;2022-07-18T06:30:50;7.85;;;3.15;;
48667;SDS011;34453;52.198;5.004;2022-07-18T06:33:16;4.45;;;2.50;;
48667;SDS011;34453;52.198;5.004;2022-07-18T06:35:42;9.50;;;4.28;;
48667;SDS011;34453;52.198;5.004;2022-07-18T06:38:08;9.82;;;3.75;;
48667;SDS011;34453;52.198;5.004;2022-07-18T06:40:33;8.93;;;3.40;;
48667;SDS011;34453;52.198;5.004;2022-07-18T06:42:59;10.50;;;3.70;;
48667;SDS011;34453;52.198;5.004;2022-07-18T06:45:24;7.82;;;3.60;;
48667;SDS011;34453;52.198;5.004;2022-07-18T06:47:50;8.85;;;2.92;;
48667;SDS011;34453;52.198;5.004;2022-07-18T06:50:16;6.68;;;3.10;;
48667;SDS011;34453;52.198;5.004;2022-07-18T06:52:42;8.85;;;4.15;;
48667;SDS011;34453;52.198;5.004;2022-07-18T06:55:09;6.65;;;2.95;;
48667;SDS011;34453;52.198;5.004;2022-07-18T06:57:36;9.40;;;3.15;;
48667;SDS011;34453;52.198;5.004;2022-07-18T07:00:03;8.23;;;3.33;;
48667;SDS011;34453;52.198;5.004;2022-07-18T07:02:30;11.55;;;3.20;;
48667;SDS011;34453;52.198;5.004;2022-07-18T07:04:55;9.40;;;3.03;;
48667;SDS011;34453;52.198;5.004;2022-07-18T07:07:21;5.60;;;3.10;;
48667;SDS011;34453;52.198;5.004;2022-07-18T07:09:46;4.35;;;2.50;;
48667;SDS011;34453;52.198;5.004;2022-07-18T07:12:12;4.07;;;2.38;;
48667;SDS011;34453;52.198;5.004;2022-07-18T07:14:37;12.57;;;3.17;;
48667;SDS011;34453;52.198;5.004;2022-07-18T07:17:03;10.38;;;2.42;;
48667;SDS011;34453;52.198;5.004;2022-07-18T07:19:29;3.80;;;2.53;;
48667;SDS011;34453;52.198;5.004;2022-07-18T07:21:55;5.95;;;2.40;;
48667;SDS011;34453;52.198;5.004;2022-07-18T07:24:20;3.28;;;2.50;;
48667;SDS011;34453;52.198;5.004;2022-07-18T07:26:46;4.72;;;2.50;;
48667;SDS011;34453;52.198;5.004;2022-07-18T07:29:12;4.35;;;2.15;;
48667;SDS011;34453;52.198;5.004;2022-07-18T07:31:37;4.05;;;2.00;;
48667;SDS011;34453;52.198;5.004;2022-07-18T07:34:03;6.18;;;2.35;;
48667;SDS011;34453;52.198;5.004;2022-07-18T07:36:29;5.30;;;2.15;;
48667;SDS011;34453;52.198;5.004;2022-07-18T07:38:54;4.22;;;2.63;;
48667;SDS011;34453;52.198;5.004;2022-07-18T07:41:20;4.72;;;2.35;;
48667;SDS011;34453;52.198;5.004;2022-07-18T07:43:46;3.10;;;1.67;;
48667;SDS011;34453;52.198;5.004;2022-07-18T07:46:11;8.85;;;2.90;;
48667;SDS011;34453;52.198;5.004;2022-07-18T07:48:37;6.07;;;2.30;;
48667;SDS011;34453;52.198;5.004;2022-07-18T07:51:03;2.65;;;1.88;;
48667;SDS011;34453;52.198;5.004;2022-07-18T07:53:29;7.60;;;2.08;;
48667;SDS011;34453;52.198;5.004;2022-07-18T07:55:55;6.93;;;2.17;;
48667;SDS011;34453;52.198;5.004;2022-07-18T07:58:20;9.57;;;1.92;;
48667;SDS011;34453;52.198;5.004;2022-07-18T08:00:46;2.33;;;1.77;;
48667;SDS011;34453;52.198;5.004;2022-07-18T08:03:11;7.60;;;2.35;;
48667;SDS011;34453;52.198;5.004;2022-07-18T08:05:43;6.22;;;2.22;;
48667;SDS011;34453;52.198;5.004;2022-07-18T08:08:10;5.85;;;2.22;;
48667;SDS011;34453;52.198;5.004;2022-07-18T08:10:35;4.22;;;2.30;;
48667;SDS011;34453;52.198;5.004;2022-07-18T08:13:01;5.45;;;1.75;;
48667;SDS011;34453;52.198;5.004;2022-07-18T08:15:27;4.07;;;1.80;;
48667;SDS011;34453;52.198;5.004;2022-07-18T08:17:53;7.65;;;2.47;;
48667;SDS011;34453;52.198;5.004;2022-07-18T08:20:19;3.47;;;1.85;;
48667;SDS011;34453;52.198;5.004;2022-07-18T08:23:18;3.95;;;2.20;;
48667;SDS011;34453;52.198;5.004;2022-07-18T08:25:38;4.70;;;2.30;;
48667;SDS011;34453;52.198;5.004;2022-07-18T08:28:05;6.57;;;2.70;;
48667;SDS011;34453;52.198;5.004;2022-07-18T08:30:31;7.25;;;2.00;;
48667;SDS011;34453;52.198;5.004;2022-07-18T08:32:57;5.20;;;2.55;;
48667;SDS011;34453;52.198;5.004;2022-07-18T08:35:23;9.50;;;2.35;;
48667;SDS011;34453;52.198;5.004;2022-07-18T08:37:49;3.80;;;1.70;;
48667;SDS011;34453;52.198;5.004;2022-07-18T08:40:15;3.50;;;1.85;;
48667;SDS011;34453;52.198;5.004;2022-07-18T08:42:41;6.03;;;2.22;;
48667;SDS011;34453;52.198;5.004;2022-07-18T08:45:07;6.95;;;2.25;;
48667;SDS011;34453;52.198;5.004;2022-07-18T08:47:33;5.78;;;1.73;;
48667;SDS011;34453;52.198;5.004;2022-07-18T08:49:59;5.30;;;2.22;;
48667;SDS011;34453;52.198;5.004;2022-07-18T08:52:27;4.82;;;2.08;;
48667;SDS011;34453;52.198;5.004;2022-07-18T08:54:54;3.90;;;2.03;;
48667;SDS011;34453;52.198;5.004;2022-07-18T08:57:22;8.75;;;1.80;;
48667;SDS011;34453;52.198;5.004;2022-07-18T08:59:49;2.80;;;1.98;;
48667;SDS011;34453;52.198;5.004;2022-07-18T09:02:14;5.95;;;2.33;;
48667;SDS011;34453;52.198;5.004;2022-07-18T09:04:44;5.72;;;1.88;;
48667;SDS011;34453;52.198;5.004;2022-07-18T09:07:11;4.65;;;2.38;;
48667;SDS011;34453;52.198;5.004;2022-07-18T09:09:52;4.43;;;1.92;;
48667;SDS011;34453;52.198;5.004;2022-07-18T09:12:23;2.67;;;1.65;;
48667;SDS011;34453;52.198;5.004;2022-07-18T09:14:50;9.60;;;2.83;;
48667;SDS011;34453;52.198;5.004;2022-07-18T09:17:18;2.53;;;1.58;;
48667;SDS011;34453;52.198;5.004;2022-07-18T09:22:45;4.88;;;2.50;;
48667;SDS011;34453;52.198;5.004;2022-07-18T09:25:15;10.95;;;3.03;;
48667;SDS011;34453;52.198;5.004;2022-07-18T09:27:43;1.63;;;1.40;;
48667;SDS011;34453;52.198;5.004;2022-07-18T09:33:09;6.13;;;1.83;;
48667;SDS011;34453;52.198;5.004;2022-07-18T09:35:36;3.92;;;2.00;;
48667;SDS011;34453;52.198;5.004;2022-07-18T09:38:11;3.95;;;2.15;;
48667;SDS011;34453;52.198;5.004;2022-07-18T09:40:46;5.55;;;2.00;;
48667;SDS011;34453;52.198;5.004;2022-07-18T09:43:18;2.90;;;2.05;;
48667;SDS011;34453;52.198;5.004;2022-07-18T09:45:55;2.53;;;2.33;;
48667;SDS011;34453;52.198;5.004;2022-07-18T09:48:22;14.50;;;2.67;;
48667;SDS011;34453;52.198;5.004;2022-07-18T09:50:53;3.03;;;2.08;;
48667;SDS011;34453;52.198;5.004;2022-07-18T09:53:39;5.75;;;1.92;;
48667;SDS011;34453;52.198;5.004;2022-07-18T09:56:14;4.60;;;2.45;;
48667;SDS011;34453;52.198;5.004;2022-07-18T10:01:17;5.05;;;2.15;;
48667;SDS011;34453;52.198;5.004;2022-07-18T10:03:42;5.47;;;1.52;;
48667;SDS011;34453;52.198;5.004;2022-07-18T10:06:08;3.42;;;1.95;;
48667;SDS011;34453;52.198;5.004;2022-07-18T10:08:34;7.03;;;1.95;;
48667;SDS011;34453;52.198;5.004;2022-07-18T10:11:02;4.80;;;2.00;;
48667;SDS011;34453;52.198;5.004;2022-07-18T10:13:30;6.00;;;2.17;;
48667;SDS011;34453;52.198;5.004;2022-07-18T10:15:57;4.45;;;2.20;;
48667;SDS011;34453;52.198;5.004;2022-07-18T10:18:24;4.70;;;2.15;;
48667;SDS011;34453;52.198;5.004;2022-07-18T10:21:07;2.40;;;2.20;;
48667;SDS011;34453;52.198;5.004;2022-07-18T10:23:38;4.95;;;1.65;;
48667;SDS011;34453;52.198;5.004;2022-07-18T10:31:26;2.85;;;2.17;;
48667;SDS011;34453;52.198;5.004;2022-07-18T10:33:53;5.05;;;1.92;;
48667;SDS011;34453;52.198;5.004;2022-07-18T10:36:34;5.10;;;1.97;;
48667;SDS011;34453;52.198;5.004;2022-07-18T10:39:02;3.25;;;1.42;;
48667;SDS011;34453;52.198;5.004;2022-07-18T10:47:19;4.15;;;2.60;;
48667;SDS011;34453;52.198;5.004;2022-07-18T10:57:27;4.65;;;2.00;;
48667;SDS011;34453;52.198;5.004;2022-07-18T11:02:37;4.20;;;2.10;;
48667;SDS011;34453;52.198;5.004;2022-07-18T11:13:39;5.72;;;1.63;;
48667;SDS011;34453;52.198;5.004;2022-07-18T11:16:18;5.30;;;2.22;;
48667;SDS011;34453;52.198;5.004;2022-07-18T11:21:18;2.93;;;2.10;;
48667;SDS011;34453;52.198;5.004;2022-07-18T11:26:27;6.22;;;1.98;;
48667;SDS011;34453;52.198;5.004;2022-07-18T11:29:01;3.70;;;1.90;;
48667;SDS011;34453;52.198;5.004;2022-07-18T11:31:30;1.98;;;1.85;;
48667;SDS011;34453;52.198;5.004;2022-07-18T11:33:59;2.55;;;1.63;;
48667;SDS011;34453;52.198;5.004;2022-07-18T11:36:30;4.45;;;1.90;;
48667;SDS011;34453;52.198;5.004;2022-07-18T11:38:58;1.80;;;1.70;;
48667;SDS011;34453;52.198;5.004;2022-07-18T11:41:24;6.60;;;2.10;;
48667;SDS011;34453;52.198;5.004;2022-07-18T11:43:51;3.10;;;2.25;;
48667;SDS011;34453;52.198;5.004;2022-07-18T11:46:18;7.40;;;1.90;;
48667;SDS011;34453;52.198;5.004;2022-07-18T11:48:48;4.07;;;1.98;;
48667;SDS011;34453;52.198;5.004;2022-07-18T11:51:22;3.33;;;2.55;;
48667;SDS011;34453;52.198;5.004;2022-07-18T11:53:52;2.55;;;2.33;;
48667;SDS011;34453;52.198;5.004;2022-07-18T11:56:20;2.92;;;2.25;;
48667;SDS011;34453;52.198;5.004;2022-07-18T11:58:47;3.28;;;2.35;;
48667;SDS011;34453;52.198;5.004;2022-07-18T12:01:14;3.13;;;2.67;;
48667;SDS011;34453;52.198;5.004;2022-07-18T12:03:40;4.68;;;2.55;;
48667;SDS011;34453;52.198;5.004;2022-07-18T12:06:27;2.63;;;2.42;;
48667;SDS011;34453;52.198;5.004;2022-07-18T12:08:53;7.30;;;2.75;;
48667;SDS011;34453;52.198;5.004;2022-07-18T12:11:35;2.67;;;2.50;;
48667;SDS011;34453;52.198;5.004;2022-07-18T12:14:02;3.10;;;2.83;;
48667;SDS011;34453;52.198;5.004;2022-07-18T12:16:40;2.40;;;2.20;;
48667;SDS011;34453;52.198;5.004;2022-07-18T12:19:16;2.58;;;2.03;;
48667;SDS011;34453;52.198;5.004;2022-07-18T12:21:50;2.25;;;2.13;;
48667;SDS011;34453;52.198;5.004;2022-07-18T12:32:37;1.98;;;1.88;;
48667;SDS011;34453;52.198;5.004;2022-07-18T12:35:12;2.55;;;2.00;;
48667;SDS011;34453;52.198;5.004;2022-07-18T12:45:52;1.77;;;1.67;;
48667;SDS011;34453;52.198;5.004;2022-07-18T12:48:19;2.78;;;2.10;;
48667;SDS011;34453;52.198;5.004;2022-07-18T12:50:44;6.90;;;1.90;;
48667;SDS011;34453;52.198;5.004;2022-07-18T12:53:10;2.60;;;2.17;;
48667;SDS011;34453;52.198;5.004;2022-07-18T12:55:37;5.35;;;1.63;;
48667;SDS011;34453;52.198;5.004;2022-07-18T12:58:03;6.45;;;2.00;;
48667;SDS011;34453;52.198;5.004;2022-07-18T13:00:30;4.43;;;2.10;;
48667;SDS011;34453;52.198;5.004;2022-07-18T13:02:57;2.75;;;1.80;;
48667;SDS011;34453;52.198;5.004;2022-07-18T13:05:26;6.15;;;1.98;;
48667;SDS011;34453;52.198;5.004;2022-07-18T13:07:54;4.18;;;2.05;;
48667;SDS011;34453;52.198;5.004;2022-07-18T13:10:19;2.50;;;1.75;;
48667;SDS011;34453;52.198;5.004;2022-07-18T13:12:45;3.10;;;2.30;;
48667;SDS011;34453;52.198;5.004;2022-07-18T13:15:11;1.90;;;1.80;;
48667;SDS011;34453;52.198;5.004;2022-07-18T13:17:37;2.38;;;2.00;;
48667;SDS011;34453;52.198;5.004;2022-07-18T13:20:03;3.35;;;1.80;;
48667;SDS011;34453;52.198;5.004;2022-07-18T13:22:29;3.40;;;1.65;;
48667;SDS011;34453;52.198;5.004;2022-07-18T13:25:02;2.47;;;2.13;;
48667;SDS011;34453;52.198;5.004;2022-07-18T13:27:29;3.08;;;1.90;;
48667;SDS011;34453;52.198;5.004;2022-07-18T13:29:55;3.42;;;2.20;;
48667;SDS011;34453;52.198;5.004;2022-07-18T13:32:20;3.05;;;1.90;;
48667;SDS011;34453;52.198;5.004;2022-07-18T13:34:46;5.47;;;2.08;;
48667;SDS011;34453;52.198;5.004;2022-07-18T13:37:11;2.08;;;1.95;;
48667;SDS011;34453;52.198;5.004;2022-07-18T13:39:36;2.67;;;1.75;;
48667;SDS011;34453;52.198;5.004;2022-07-18T13:42:02;2.20;;;1.98;;
48667;SDS011;34453;52.198;5.004;2022-07-18T13:44:30;9.40;;;2.63;;
48667;SDS011;34453;52.198;5.004;2022-07-18T13:46:56;2.28;;;2.10;;
48667;SDS011;34453;52.198;5.004;2022-07-18T13:49:22;3.10;;;2.00;;
48667;SDS011;34453;52.198;5.004;2022-07-18T13:51:47;2.75;;;1.70;;
48667;SDS011;34453;52.198;5.004;2022-07-18T13:54:13;2.67;;;1.75;;
48667;SDS011;34453;52.198;5.004;2022-07-18T13:56:42;2.13;;;1.98;;
48667;SDS011;34453;52.198;5.004;2022-07-18T13:59:08;3.63;;;1.80;;
48667;SDS011;34453;52.198;5.004;2022-07-18T14:01:34;2.78;;;1.80;;
48667;SDS011;34453;52.198;5.004;2022-07-18T14:03:59;2.33;;;2.13;;
48667;SDS011;34453;52.198;5.004;2022-07-18T14:06:25;4.90;;;1.75;;
48667;SDS011;34453;52.198;5.004;2022-07-18T14:08:51;2.95;;;1.77;;
48667;SDS011;34453;52.198;5.004;2022-07-18T14:11:16;4.47;;;2.30;;
48667;SDS011;34453;52.198;5.004;2022-07-18T14:13:42;2.33;;;2.17;;
48667;SDS011;34453;52.198;5.004;2022-07-18T14:16:07;5.57;;;2.03;;
48667;SDS011;34453;52.198;5.004;2022-07-18T14:18:33;3.95;;;1.85;;
48667;SDS011;34453;52.198;5.004;2022-07-18T14:20:58;3.85;;;2.08;;
48667;SDS011;34453;52.198;5.004;2022-07-18T14:23:24;4.00;;;2.03;;
48667;SDS011;34453;52.198;5.004;2022-07-18T14:25:50;2.20;;;2.10;;
48667;SDS011;34453;52.198;5.004;2022-07-18T14:28:20;3.88;;;1.90;;
48667;SDS011;34453;52.198;5.004;2022-07-18T14:30:46;3.10;;;2.10;;
48667;SDS011;34453;52.198;5.004;2022-07-18T14:33:12;2.63;;;1.77;;
48667;SDS011;34453;52.198;5.004;2022-07-18T14:35:37;4.65;;;1.60;;
48667;SDS011;34453;52.198;5.004;2022-07-18T14:38:04;2.85;;;1.85;;
48667;SDS011;34453;52.198;5.004;2022-07-18T14:40:30;1.80;;;1.70;;
48667;SDS011;34453;52.198;5.004;2022-07-18T14:42:55;5.22;;;1.80;;
48667;SDS011;34453;52.198;5.004;2022-07-18T14:45:21;4.78;;;1.83;;
48667;SDS011;34453;52.198;5.004;2022-07-18T14:47:46;2.25;;;1.70;;
48667;SDS011;34453;52.198;5.004;2022-07-18T14:50:12;2.40;;;2.10;;
48667;SDS011;34453;52.198;5.004;2022-07-18T14:52:38;2.13;;;1.85;;
48667;SDS011;34453;52.198;5.004;2022-07-18T14:55:05;5.93;;;1.98;;
48667;SDS011;34453;52.198;5.004;2022-07-18T14:57:31;1.80;;;1.70;;
48667;SDS011;34453;52.198;5.004;2022-07-18T14:59:57;6.50;;;2.00;;
48667;SDS011;34453;52.198;5.004;2022-07-18T15:02:23;2.03;;;1.85;;
48667;SDS011;34453;52.198;5.004;2022-07-18T15:04:49;2.28;;;1.92;;
48667;SDS011;34453;52.198;5.004;2022-07-18T15:07:17;4.80;;;2.35;;
48667;SDS011;34453;52.198;5.004;2022-07-18T15:09:43;8.18;;;2.40;;
48667;SDS011;34453;52.198;5.004;2022-07-18T15:12:08;1.95;;;1.83;;
48667;SDS011;34453;52.198;5.004;2022-07-18T15:14:34;4.70;;;1.92;;
48667;SDS011;34453;52.198;5.004;2022-07-18T15:17:01;1.75;;;1.65;;
48667;SDS011;34453;52.198;5.004;2022-07-18T15:19:26;4.70;;;2.53;;
48667;SDS011;34453;52.198;5.004;2022-07-18T15:21:52;3.85;;;2.25;;
48667;SDS011;34453;52.198;5.004;2022-07-18T15:24:18;3.45;;;2.25;;
48667;SDS011;34453;52.198;5.004;2022-07-18T15:26:44;6.20;;;2.17;;
48667;SDS011;34453;52.198;5.004;2022-07-18T15:29:10;2.50;;;2.25;;
48667;SDS011;34453;52.198;5.004;2022-07-18T15:31:37;1.63;;;1.52;;
48667;SDS011;34453;52.198;5.004;2022-07-18T15:34:03;2.08;;;1.50;;
48667;SDS011;34453;52.198;5.004;2022-07-18T15:36:28;2.25;;;2.13;;
48667;SDS011;34453;52.198;5.004;2022-07-18T15:38:54;2.08;;;1.90;;
48667;SDS011;34453;52.198;5.004;2022-07-18T15:41:19;4.75;;;1.92;;
48667;SDS011;34453;52.198;5.004;2022-07-18T15:43:46;3.22;;;2.30;;
48667;SDS011;34453;52.198;5.004;2022-07-18T15:46:12;2.38;;;1.80;;